Time;durP1;ratioP1;P1;durP2;ratioP2;P2;SDS_P1;SDS_P2;PMS_P1;PMS_P2;Temp;Humidity;BMP_temperature;BMP_pressure;BME280_temperature;BME280_humidity;BME280_pressure;Samples;Min_cycle;Max_cycle;Signal;HPM_P1;HPM_P2
2022/05/01 00:02:31;;;;;;;12.35;8.05;;;9.80;1.00;;;;;;6247183;22;20070;-91
2022/05/01 00:12:43;;;;;;;10.00;6.90;;;9.60;1.00;;;;;;6184432;23;20092;-91
2022/05/01 00:15:29;;;;;;;12.27;6.72;;;9.60;1.00;;;;;;6195597;23;20024;-93
2022/05/01 00:19:02;;;;;;;15.93;8.73;;;9.60;1.00;;;;;;6219097;23;20012;-93
2022/05/01 00:22:49;;;;;;;11.55;7.10;;;9.60;1.00;;;;;;6186797;23;20511;-92
2022/05/01 00:26:32;;;;;;;18.65;8.52;;;9.50;1.00;;;;;;6217328;23;20012;-92
2022/05/01 00:29:41;;;;;;;;;;;;;;;;;;;;;
2022/05/01 00:32:18;;;;;;;12.70;8.05;;;9.50;1.00;;;;;;6199359;23;20062;-93
2022/05/01 00:37:34;;;;;;;16.30;8.55;;;9.40;1.00;;;;;;6246865;23;20079;-93
2022/05/01 00:40:12;;;;;;;16.77;8.57;;;9.40;1.00;;;;;;6221833;23;20012;-93
2022/05/01 00:42:51;;;;;;;15.07;8.75;;;9.40;1.00;;;;;;6197069;23;20024;-93
2022/05/01 00:45:28;;;;;;;12.02;8.23;;;9.40;1.00;;;;;;6195763;23;20047;-93
2022/05/01 00:48:06;;;;;;;15.10;9.00;;;9.30;1.00;;;;;;6220979;23;20035;-93
2022/05/01 00:50:45;;;;;;;13.05;8.23;;;9.30;1.00;;;;;;6196819;23;20024;-92
2022/05/01 00:53:32;;;;;;;13.85;8.57;;;9.30;1.00;;;;;;6244895;23;20048;-90
2022/05/01 00:56:12;;;;;;;13.60;8.60;;;9.30;1.00;;;;;;6196967;23;20014;-92
2022/05/01 00:58:55;;;;;;;17.85;8.88;;;9.20;1.00;;;;;;6197407;23;20044;-91
2022/05/01 01:01:30;;;;;;;13.90;8.10;;;9.20;1.00;;;;;;6172913;23;20489;-91
2022/05/01 01:04:08;;;;;;;14.93;8.38;;;9.20;1.00;;;;;;6220179;22;20028;-92
2022/05/01 01:06:56;;;;;;;14.77;8.50;;;9.20;1.00;;;;;;6221004;23;20020;-92
2022/05/01 01:10:10;;;;;;;13.60;8.27;;;9.10;1.00;;;;;;6223737;23;20455;-90
2022/05/01 01:12:54;;;;;;;13.20;7.68;;;9.10;1.00;;;;;;6193007;23;20021;-92
2022/05/01 01:15:35;;;;;;;14.05;7.97;;;9.10;1.00;;;;;;6191910;23;20017;-92
2022/05/01 01:18:16;;;;;;;15.10;8.32;;;9.10;1.00;;;;;;6174964;23;20371;-91
2022/05/01 01:21:23;;;;;;;16.60;8.95;;;9.10;1.00;;;;;;6196747;23;20012;-92
2022/05/01 01:24:09;;;;;;;12.02;8.32;;;9.00;1.00;;;;;;6191499;23;20452;-92
2022/05/01 01:27:00;;;;;;;16.95;8.68;;;9.00;1.00;;;;;;6193159;23;20024;-91
2022/05/01 01:32:49;;;;;;;12.82;8.15;;;9.00;1.00;;;;;;6191832;23;20075;-91
2022/05/01 01:35:24;;;;;;;14.38;7.75;;;8.90;1.00;;;;;;6167774;23;20527;-91
2022/05/01 01:37:54;;;;;;;15.02;8.40;;;8.90;1.00;;;;;;6191570;23;20023;-90
2022/05/01 01:40:33;;;;;;;11.00;7.22;;;8.90;1.00;;;;;;6167652;23;20016;-93
2022/05/01 01:43:05;;;;;;;14.50;8.85;;;8.90;1.00;;;;;;6193033;23;20024;-91
2022/05/01 01:45:36;;;;;;;16.73;7.97;;;8.90;1.00;;;;;;6168648;23;20103;-93
2022/05/01 01:48:12;;;;;;;13.38;7.72;;;8.80;1.00;;;;;;6193306;23;20024;-91
2022/05/01 01:50:44;;;;;;;14.82;7.00;;;8.80;1.00;;;;;;6192545;23;20052;-92
2022/05/01 01:53:12;;;;;;;14.43;8.43;;;8.80;1.00;;;;;;6194907;23;20023;-92
2022/05/01 01:55:43;;;;;;;13.75;7.03;;;8.80;1.00;;;;;;6190897;23;20095;-92
2022/05/01 01:58:26;;;;;;;;;;;;;;;;;;;;;
2022/05/01 02:01:09;;;;;;;13.00;8.13;;;8.70;1.00;;;;;;6192115;23;20023;-92
2022/05/01 02:03:54;;;;;;;;;;;;;;;;;;;;;
2022/05/01 02:06:31;;;;;;;13.75;8.30;;;8.70;1.00;;;;;;6192291;23;20386;-92
2022/05/01 02:09:06;;;;;;;12.95;7.22;;;8.70;1.00;;;;;;6192790;23;20090;-92
2022/05/01 02:11:38;;;;;;;11.88;8.52;;;8.60;1.00;;;;;;6212136;23;20020;-93
2022/05/01 02:14:19;;;;;;;14.57;8.17;;;8.70;1.00;;;;;;6193379;23;20027;-93
2022/05/01 02:16:55;;;;;;;14.77;8.60;;;8.60;1.00;;;;;;6193579;23;20024;-94
2022/05/01 02:19:26;;;;;;;12.88;7.90;;;8.60;1.00;;;;;;6217902;23;20511;-93
2022/05/01 02:21:58;;;;;;;13.88;7.78;;;8.60;1.00;;;;;;6192999;23;20063;-93
2022/05/01 02:24:34;;;;;;;13.52;7.45;;;8.60;1.00;;;;;;6193201;23;20027;-92
2022/05/01 02:27:03;;;;;;;15.13;8.43;;;8.50;1.00;;;;;;6167799;23;20352;-92
2022/05/01 02:29:30;;;;;;;11.98;7.65;;;8.50;1.00;;;;;;6218268;23;20432;-93
2022/05/01 02:31:57;;;;;;;14.15;8.65;;;8.50;1.00;;;;;;6192004;23;20104;-92
2022/05/01 02:34:27;;;;;;;13.18;8.35;;;8.50;1.00;;;;;;6192877;23;20051;-92
2022/05/01 02:37:09;;;;;;;13.48;8.15;;;8.50;1.00;;;;;;6194951;23;20048;-92
2022/05/01 02:39:46;;;;;;;12.63;7.55;;;8.50;1.00;;;;;;6192815;23;20016;-93
2022/05/01 02:50:25;;;;;;;12.07;6.93;;;8.40;1.00;;;;;;6216221;23;20024;-92
2022/05/01 02:53:41;;;;;;;11.05;7.75;;;8.40;1.00;;;;;;6216805;23;20102;-93
2022/05/01 02:56:30;;;;;;;10.82;7.13;;;8.30;1.00;;;;;;6216307;23;20347;-93
2022/05/01 02:59:10;;;;;;;12.57;7.22;;;8.30;1.00;;;;;;6172895;23;20119;-93
2022/05/01 03:01:46;;;;;;;14.80;8.10;;;8.30;1.00;;;;;;6217489;23;20056;-92
2022/05/01 03:04:21;;;;;;;11.90;7.38;;;8.30;1.00;;;;;;6192001;23;20016;-93
2022/05/01 03:06:57;;;;;;;12.68;7.45;;;8.30;1.00;;;;;;6193197;23;20017;-93
2022/05/01 03:09:27;;;;;;;18.48;8.15;;;8.30;1.00;;;;;;6218264;23;20016;-92
2022/05/01 03:11:59;;;;;;;10.18;6.88;;;8.20;1.00;;;;;;6192536;23;20021;-93
2022/05/01 03:14:37;;;;;;;14.60;6.97;;;8.30;1.00;;;;;;6216558;23;20021;-92
2022/05/01 03:22:10;;;;;;;13.25;7.80;;;8.20;1.00;;;;;;6219029;23;20455;-92
2022/05/01 03:23:17;;;;;;;13.85;7.40;;;8.20;1.00;;;;;;6216488;23;20021;-92
2022/05/01 03:25:51;;;;;;;13.60;7.18;;;8.20;1.00;;;;;;6216806;23;20020;-92
2022/05/01 03:28:38;;;;;;;15.63;8.27;;;8.10;1.00;;;;;;6217231;23;20023;-92
2022/05/01 03:31:10;;;;;;;12.70;6.97;;;8.20;1.00;;;;;;6217337;23;20025;-92
2022/05/01 03:33:42;;;;;;;13.32;7.35;;;8.10;1.00;;;;;;6216306;23;20103;-91
2022/05/01 03:36:14;;;;;;;11.05;6.85;;;8.10;1.00;;;;;;6218291;23;20024;-92
2022/05/01 03:38:50;;;;;;;12.43;6.93;;;8.10;1.00;;;;;;6191681;23;20429;-91
2022/05/01 03:41:22;;;;;;;12.90;7.28;;;8.10;1.00;;;;;;6191594;23;20017;-92
2022/05/01 03:43:53;;;;;;;12.55;7.15;;;8.00;1.00;;;;;;6215625;23;20009;-92
2022/05/01 03:46:30;;;;;;;9.88;6.32;;;8.00;1.00;;;;;;6192046;23;20095;-92
2022/05/01 03:49:09;;;;;;;9.00;6.63;;;8.00;1.00;;;;;;6216010;23;20043;-93
2022/05/01 03:51:42;;;;;;;11.02;7.03;;;8.00;1.00;;;;;;6191356;23;20020;-91
2022/05/01 03:54:14;;;;;;;10.20;6.30;;;8.00;1.00;;;;;;6217623;23;20333;-92
2022/05/01 03:56:54;;;;;;;11.40;6.60;;;8.00;1.00;;;;;;6218064;23;20020;-93
2022/05/01 03:59:31;;;;;;;9.55;6.82;;;8.00;1.00;;;;;;6218768;23;20238;-92
2022/05/01 04:02:04;;;;;;;10.05;6.18;;;8.00;1.00;;;;;;6191200;23;20016;-92
2022/05/01 04:04:46;;;;;;;10.43;6.57;;;8.00;1.00;;;;;;6215726;23;20090;-92
2022/05/01 04:07:21;;;;;;;13.55;6.40;;;7.90;1.00;;;;;;6192835;23;20067;-92
2022/05/01 04:09:55;;;;;;;10.52;6.30;;;7.90;1.00;;;;;;6192103;23;20347;-91
2022/05/01 04:12:29;;;;;;;13.38;6.85;;;7.90;1.00;;;;;;6191693;23;20044;-93
2022/05/01 04:15:07;;;;;;;10.52;6.55;;;7.90;1.00;;;;;;6191579;23;20021;-92
2022/05/01 04:17:43;;;;;;;9.77;5.78;;;7.90;1.00;;;;;;6171720;23;20012;-92
2022/05/01 04:20:58;;;;;;;12.38;6.03;;;7.90;1.00;;;;;;6215808;23;20025;-92
2022/05/01 04:23:32;;;;;;;13.75;6.30;;;7.90;1.00;;;;;;6146155;23;20028;-92
2022/05/01 04:26:07;;;;;;;10.50;6.18;;;7.80;1.00;;;;;;6191127;23;20029;-93
2022/05/01 04:31:33;;;;;;;12.13;6.53;;;7.90;1.00;;;;;;6175114;23;20048;-92
2022/05/01 04:34:15;;;;;;;;;;;;;;;;;;;;;
2022/05/01 04:36:51;;;;;;;9.55;6.28;;;7.80;1.00;;;;;;6191532;23;20473;-92
2022/05/01 04:39:21;;;;;;;12.43;7.13;;;7.80;1.00;;;;;;6167604;23;20016;-92
2022/05/01 04:41:56;;;;;;;11.82;6.78;;;7.80;1.00;;;;;;6195767;23;20016;-92
2022/05/01 04:44:43;;;;;;;9.00;5.38;;;7.80;1.00;;;;;;6190936;23;20020;-92
2022/05/01 04:47:25;;;;;;;8.15;5.78;;;7.80;1.00;;;;;;6192753;23;20043;-93
2022/05/01 04:50:05;;;;;;;;;;;7.80;1.00;;;;;;6195352;23;20013;-92
2022/05/01 04:52:52;;;;;;;10.00;5.50;;;7.80;1.00;;;;;;6194831;23;20243;-92
2022/05/01 04:55:34;;;;;;;7.88;5.35;;;7.80;1.00;;;;;;6195094;23;20017;-93
2022/05/01 04:58:09;;;;;;;11.45;6.50;;;7.80;1.00;;;;;;6193042;23;20021;-92
2022/05/01 05:00:50;;;;;;;9.65;6.15;;;7.80;1.00;;;;;;6169106;23;20047;-92
2022/05/01 05:03:40;;;;;;;8.32;6.38;;;7.80;1.00;;;;;;6169714;23;20409;-92
2022/05/01 05:06:11;;;;;;;8.55;6.47;;;7.90;1.00;;;;;;6192160;23;20021;-92
2022/05/01 05:11:38;;;;;;;11.68;6.03;;;7.90;1.00;;;;;;6219768;23;20024;-92
2022/05/01 05:14:10;;;;;;;11.35;6.22;;;7.90;1.00;;;;;;6169523;23;20021;-92
2022/05/01 05:16:54;;;;;;;9.38;6.57;;;7.90;1.00;;;;;;6170601;23;20436;-92
2022/05/01 05:19:39;;;;;;;10.77;6.28;;;7.90;1.00;;;;;;6170692;23;20385;-91
2022/05/01 05:22:16;;;;;;;10.55;6.72;;;8.00;1.00;;;;;;6195647;23;20020;-92
2022/05/01 05:24:54;;;;;;;12.55;6.75;;;8.00;1.00;;;;;;6194518;23;20428;-91
2022/05/01 05:27:29;;;;;;;7.95;5.93;;;8.00;1.00;;;;;;6168352;23;20355;-92
2022/05/01 05:30:06;;;;;;;11.18;6.25;;;8.00;1.00;;;;;;6193319;23;20012;-92
2022/05/01 05:32:38;;;;;;;9.38;6.50;;;8.00;1.00;;;;;;6192727;23;20095;-93
2022/05/01 05:35:06;;;;;;;10.13;7.13;;;8.00;1.00;;;;;;6192441;23;20498;-91
2022/05/01 05:37:33;;;;;;;10.30;6.25;;;8.00;1.00;;;;;;6167135;23;20031;-91
2022/05/01 05:40:01;;;;;;;10.40;6.00;;;8.10;1.00;;;;;;6191750;23;20095;-92
2022/05/01 05:42:31;;;;;;;7.78;5.72;;;8.10;1.00;;;;;;6191882;23;20051;-93
2022/05/01 05:45:01;;;;;;;9.80;5.90;;;8.10;1.00;;;;;;6191662;23;20092;-92
2022/05/01 05:47:31;;;;;;;7.93;5.50;;;8.10;1.00;;;;;;6192355;23;20020;-92
2022/05/01 05:49:58;;;;;;;8.35;5.13;;;8.10;1.00;;;;;;6167037;23;20028;-91
2022/05/01 05:52:25;;;;;;;7.78;5.55;;;8.10;1.00;;;;;;6191996;23;20115;-93
2022/05/01 05:54:52;;;;;;;8.02;6.03;;;8.10;1.00;;;;;;6191409;23;20056;-91
2022/05/01 05:57:22;;;;;;;8.57;5.35;;;8.10;1.00;;;;;;6192684;23;20020;-90
2022/05/01 06:00:46;;;;;;;9.60;5.50;;;8.10;1.00;;;;;;6143090;23;20016;-92
2022/05/01 06:03:45;;;;;;;9.27;5.22;;;8.10;1.00;;;;;;6187011;23;20027;-93
2022/05/01 06:06:26;;;;;;;7.80;5.32;;;8.10;1.00;;;;;;6179734;23;20016;-92
2022/05/01 06:08:53;;;;;;;8.23;5.05;;;8.10;1.00;;;;;;6167608;23;20016;-91
2022/05/01 06:11:20;;;;;;;8.73;5.55;;;8.20;1.00;;;;;;6213828;23;20459;-91
2022/05/01 06:13:47;;;;;;;6.15;4.60;;;8.20;1.00;;;;;;6222196;22;20052;-91
2022/05/01 06:16:14;;;;;;;7.95;5.03;;;8.20;1.00;;;;;;6248343;23;20078;-93
2022/05/01 06:18:46;;;;;;;8.93;4.97;;;8.30;1.00;;;;;;6222971;23;20020;-91
2022/05/01 06:21:15;;;;;;;;;;;8.30;1.00;;;;;;6199120;23;20399;-91
2022/05/01 06:23:45;;;;;;;9.13;5.15;;;8.30;1.00;;;;;;6197347;22;19998;-91
2022/05/01 06:26:14;;;;;;;8.43;5.03;;;8.40;1.00;;;;;;6173148;23;20020;-92
2022/05/01 06:28:52;;;;;;;9.35;5.00;;;8.40;1.00;;;;;;6173480;23;20070;-93
2022/05/01 06:31:41;;;;;;;8.30;5.18;;;8.40;1.00;;;;;;6222567;23;20056;-93
2022/05/01 06:38:34;;;;;;;7.75;4.70;;;8.50;95.60;;;;;;6251054;22;20085;-89
2022/05/01 06:41:25;;;;;;;13.80;5.85;;;8.60;99.90;;;;;;6249285;22;20008;-90
2022/05/01 06:43:55;;;;;;;8.52;5.10;;;8.80;99.90;;;;;;6246383;22;20098;-90
2022/05/01 06:46:25;;;;;;;9.13;5.93;;;8.90;99.90;;;;;;6221138;23;20352;-90
2022/05/01 06:49:06;;;;;;;8.95;4.97;;;9.00;99.90;;;;;;6253865;23;20016;-90
2022/05/01 06:51:33;;;;;;;13.55;6.47;;;9.00;99.90;;;;;;6222292;23;20028;-91
2022/05/01 06:57:38;;;;;;;11.68;6.22;;;9.20;99.90;;;;;;6228702;23;20100;-94
2022/05/01 07:00:07;;;;;;;10.18;5.38;;;9.30;99.90;;;;;;6228600;23;20048;-90
2022/05/01 07:02:46;;;;;;;8.07;5.05;;;9.20;99.90;;;;;;6223496;23;20008;-88
2022/05/01 07:05:31;;;;;;;8.43;5.15;;;9.20;99.90;;;;;;6219950;23;20027;-90
2022/05/01 07:11:54;;;;;;;10.75;6.13;;;9.30;99.90;;;;;;6173650;23;20451;-91
2022/05/01 07:14:22;;;;;;;10.02;6.40;;;9.40;99.90;;;;;;6219596;23;20047;-91
2022/05/01 07:16:51;;;;;;;9.82;5.97;;;9.40;99.90;;;;;;6196203;23;20023;-89
2022/05/01 07:19:24;;;;;;;13.43;7.00;;;9.40;99.90;;;;;;6247951;23;20017;-91
2022/05/01 07:21:53;;;;;;;8.70;5.07;;;9.50;99.90;;;;;;6196632;23;20016;-92
2022/05/01 07:24:21;;;;;;;8.48;5.25;;;9.50;99.90;;;;;;6221133;23;20527;-91
2022/05/01 07:26:52;;;;;;;8.15;5.40;;;9.60;99.90;;;;;;6196645;23;20020;-92
2022/05/01 07:29:21;;;;;;;8.63;5.10;;;9.50;99.90;;;;;;6222015;23;20016;-88
2022/05/01 07:31:51;;;;;;;6.05;4.45;;;9.60;99.90;;;;;;6221741;23;20031;-90
2022/05/01 07:34:20;;;;;;;10.90;5.85;;;9.60;99.90;;;;;;6195832;23;20026;-90
2022/05/01 07:36:50;;;;;;;10.13;5.45;;;9.70;99.90;;;;;;6221723;23;20016;-90
2022/05/01 07:39:17;;;;;;;7.78;4.70;;;9.80;99.90;;;;;;6247479;23;20447;-91
2022/05/01 07:41:48;;;;;;;10.38;5.55;;;9.80;99.90;;;;;;6221441;23;20020;-91
2022/05/01 07:47:36;;;;;;;7.40;4.03;;;9.90;99.90;;;;;;6246354;23;20016;-88
2022/05/01 07:50:08;;;;;;;5.40;3.58;;;9.90;99.90;;;;;;6221247;23;20047;-91
2022/05/01 07:53:00;;;;;;;6.40;4.60;;;9.90;99.90;;;;;;6219175;23;20027;-91
2022/05/01 07:59:55;;;;;;;8.30;4.45;;;10.00;99.90;;;;;;6227818;23;20016;-91
2022/05/01 08:06:22;;;;;;;8.27;5.25;;;10.10;99.90;;;;;;6247612;23;20020;-91
2022/05/01 08:12:44;;;;;;;10.85;5.28;;;10.40;99.90;;;;;;6192386;23;20015;-92
2022/05/01 08:16:23;;;;;;;10.95;4.80;;;10.50;99.90;;;;;;6252915;22;20045;-92
2022/05/01 09:14:26;;;;;;;6.93;4.35;;;12.00;1.00;;;;;;6269398;22;20070;-93
2022/05/01 09:17:10;;;;;;;8.15;4.10;;;12.10;1.00;;;;;;6221878;23;20074;-90
2022/05/01 09:19:53;;;;;;;6.35;3.90;;;12.10;1.00;;;;;;6198349;23;20043;-93
2022/05/01 09:22:21;;;;;;;6.35;3.70;;;12.20;1.00;;;;;;6248425;23;20019;-91
2022/05/01 09:24:53;;;;;;;5.28;3.60;;;12.30;1.00;;;;;;6196880;23;20020;-89
2022/05/01 09:27:32;;;;;;;5.75;3.88;;;12.30;1.00;;;;;;6248379;23;20095;-92
2022/05/01 09:30:08;;;;;;;6.07;4.28;;;12.50;1.00;;;;;;6222017;23;20023;-91
2022/05/01 09:32:38;;;;;;;6.30;3.25;;;12.60;1.00;;;;;;6249594;23;20015;-91
2022/05/01 09:35:36;;;;;;;7.72;4.10;;;12.60;1.00;;;;;;6235115;22;20042;-91
2022/05/01 09:38:25;;;;;;;5.25;3.25;;;12.60;1.00;;;;;;6279509;22;20020;-94
2022/05/01 09:41:02;;;;;;;7.75;3.50;;;12.60;1.00;;;;;;6279382;22;20093;-91
2022/05/01 09:43:36;;;;;;;8.68;4.20;;;12.50;1.00;;;;;;6277405;22;20021;-91
2022/05/01 09:46:23;;;;;;;9.98;4.20;;;12.60;1.00;;;;;;6247153;23;20020;-91
2022/05/01 09:48:58;;;;;;;5.63;3.70;;;12.60;1.00;;;;;;6246881;23;20055;-90
2022/05/01 09:51:27;;;;;;;5.50;4.15;;;12.70;1.00;;;;;;6247236;23;20435;-90
2022/05/01 09:53:54;;;;;;;11.45;3.92;;;12.80;1.00;;;;;;6246721;23;20012;-91
2022/05/01 09:56:27;;;;;;;9.68;4.10;;;12.90;1.00;;;;;;6246961;23;20017;-91
2022/05/01 09:59:01;;;;;;;7.43;4.03;;;12.90;1.00;;;;;;6246782;23;20043;-90
2022/05/01 10:01:30;;;;;;;8.98;4.35;;;12.80;1.00;;;;;;6246777;23;20023;-92
2022/05/01 10:04:02;;;;;;;8.25;4.22;;;12.90;1.00;;;;;;6246783;23;20024;-90
2022/05/01 10:06:31;;;;;;;8.10;4.88;;;13.00;1.00;;;;;;6247037;23;20183;-91
2022/05/01 10:08:59;;;;;;;5.22;3.80;;;13.10;1.00;;;;;;6221678;23;20397;-89
2022/05/01 10:11:28;;;;;;;8.88;3.78;;;13.10;1.00;;;;;;6246122;23;20016;-91
2022/05/01 10:14:03;;;;;;;8.95;3.83;;;13.20;1.00;;;;;;6247809;23;20024;-93
2022/05/01 10:16:33;;;;;;;10.00;4.32;;;13.30;1.00;;;;;;6246633;23;20016;-93
2022/05/01 10:19:01;;;;;;;5.47;3.30;;;13.30;1.00;;;;;;6221263;23;20091;-92
2022/05/01 10:21:49;;;;;;;8.40;4.45;;;13.30;1.00;;;;;;6247138;23;20444;-91
2022/05/01 10:24:21;;;;;;;9.38;4.63;;;13.30;1.00;;;;;;6247198;23;20016;-91
2022/05/01 10:26:58;;;;;;;7.38;3.20;;;13.40;1.00;;;;;;6247467;23;20184;-92
2022/05/01 10:29:34;;;;;;;7.28;3.55;;;13.40;1.00;;;;;;6221827;23;20498;-92
2022/05/01 10:32:22;;;;;;;7.88;3.88;;;13.40;1.00;;;;;;6196264;23;20024;-91
2022/05/01 10:35:36;;;;;;;5.60;3.92;;;13.40;1.00;;;;;;6246347;22;20158;-92
2022/05/01 10:38:28;;;;;;;8.93;3.40;;;13.50;1.00;;;;;;6246681;23;20016;-92
2022/05/01 10:41:10;;;;;;;7.47;3.80;;;13.50;1.00;;;;;;6247303;23;20078;-92
2022/05/01 10:44:03;;;;;;;4.93;2.85;;;13.50;1.00;;;;;;6246177;23;20039;-92
2022/05/01 10:46:51;;;;;;;7.05;3.47;;;13.60;1.00;;;;;;6222603;23;20024;-92
2022/05/01 10:49:34;;;;;;;5.45;2.83;;;13.70;1.00;;;;;;6246351;23;20020;-91
2022/05/01 10:52:22;;;;;;;6.28;3.28;;;13.80;1.00;;;;;;6221818;23;20031;-92
2022/05/01 10:55:01;;;;;;;4.85;3.25;;;13.80;1.00;;;;;;6247158;23;20090;-92
2022/05/01 10:57:38;;;;;;;8.52;2.65;;;13.80;1.00;;;;;;6222996;23;20035;-92
2022/05/01 11:00:11;;;;;;;9.52;3.15;;;13.90;1.00;;;;;;6248766;23;20013;-92
2022/05/01 11:02:43;;;;;;;5.00;3.30;;;13.80;1.00;;;;;;6246726;23;20016;-91
2022/05/01 11:05:43;;;;;;;6.68;4.00;;;13.80;1.00;;;;;;6247413;23;20016;-91
2022/05/01 11:08:32;;;;;;;8.18;4.15;;;14.00;1.00;;;;;;6248997;22;20087;-92
2022/05/01 11:11:11;;;;;;;6.13;3.35;;;13.60;1.00;;;;;;6248291;23;20016;-92
2022/05/01 11:13:54;;;;;;;8.18;3.33;;;13.70;1.00;;;;;;6246856;23;20043;-91
2022/05/01 11:16:54;;;;;;;5.68;2.90;;;13.60;1.00;;;;;;6246585;23;20103;-92
2022/05/01 11:19:24;;;;;;;6.78;3.25;;;13.90;1.00;;;;;;6246343;23;20012;-91
2022/05/01 11:21:53;;;;;;;5.82;3.65;;;13.80;1.00;;;;;;6246599;23;20017;-91
2022/05/01 11:24:44;;;;;;;5.90;3.35;;;14.00;1.00;;;;;;6246524;23;20431;-92
2022/05/01 11:27:21;;;;;;;8.18;3.85;;;13.90;1.00;;;;;;6222090;23;20465;-91
2022/05/01 11:30:12;;;;;;;6.30;4.05;;;14.10;1.00;;;;;;6223774;23;20023;-91
2022/05/01 11:32:45;;;;;;;8.98;4.00;;;13.90;1.00;;;;;;6246990;23;20451;-91
2022/05/01 11:35:20;;;;;;;5.93;3.65;;;14.00;1.00;;;;;;6245997;23;20016;-91
2022/05/01 11:38:26;;;;;;;6.00;3.85;;;14.30;1.00;;;;;;6235445;22;20027;-92
2022/05/01 11:41:51;;;;;;;7.97;3.88;;;14.30;1.00;;;;;;6245906;22;20096;-91
2022/05/01 11:44:31;;;;;;;5.10;2.38;;;14.60;1.00;;;;;;6246171;23;20047;-91
2022/05/01 11:47:06;;;;;;;8.43;4.03;;;14.80;1.00;;;;;;6247331;23;20012;-91
2022/05/01 11:49:54;;;;;;;8.13;3.22;;;15.00;1.00;;;;;;6250369;22;20023;-91
2022/05/01 11:52:24;;;;;;;6.90;3.67;;;15.20;1.00;;;;;;6221341;23;20026;-91
2022/05/01 11:55:06;;;;;;;6.30;2.67;;;15.40;1.00;;;;;;6249192;23;20020;-92
2022/05/01 12:03:11;;;;;;;7.90;3.90;;;15.70;1.00;;;;;;6246798;23;20066;-91
2022/05/01 12:05:44;;;;;;;5.75;2.90;;;15.60;1.00;;;;;;6248636;22;20020;-92
2022/05/01 12:08:21;;;;;;;6.13;3.50;;;15.40;1.00;;;;;;6246474;23;20025;-92
2022/05/01 12:11:02;;;;;;;4.78;3.10;;;14.90;1.00;;;;;;6223626;23;20094;-92
2022/05/01 12:13:35;;;;;;;5.07;2.63;;;15.10;1.00;;;;;;6248370;23;20079;-91
2022/05/01 12:16:03;;;;;;;7.68;2.85;;;15.20;1.00;;;;;;6247313;23;20090;-91
2022/05/01 12:18:50;;;;;;;7.50;3.55;;;15.40;1.00;;;;;;6248717;23;20070;-92
2022/05/01 12:21:35;;;;;;;7.22;3.83;;;15.10;1.00;;;;;;6246220;23;20099;-92
2022/05/01 12:24:13;;;;;;;5.40;2.85;;;15.00;1.00;;;;;;6246412;23;20070;-91
2022/05/01 12:26:50;;;;;;;3.88;2.35;;;15.00;1.00;;;;;;6248015;23;20016;-90
2022/05/01 12:29:21;;;;;;;5.55;3.10;;;15.20;1.00;;;;;;6247717;23;20020;-92
2022/05/01 12:32:12;;;;;;;7.63;3.50;;;15.30;1.00;;;;;;6223382;23;20028;-91
2022/05/01 12:34:55;;;;;;;8.68;3.50;;;14.90;1.00;;;;;;6222512;23;20511;-91
2022/05/01 12:37:34;;;;;;;3.92;2.58;;;15.20;1.00;;;;;;6245807;23;20047;-91
2022/05/01 12:40:12;;;;;;;;;;;15.20;1.00;;;;;;6247465;23;20016;-90
2022/05/01 12:46:02;;;;;;;7.93;3.67;;;14.80;1.00;;;;;;6250012;22;20184;-92
2022/05/01 12:48:43;;;;;;;5.88;3.20;;;14.70;1.00;;;;;;6224186;23;20432;-92
2022/05/01 12:51:41;;;;;;;4.63;2.47;;;14.90;1.00;;;;;;6222180;23;20075;-92
2022/05/01 12:54:18;;;;;;;5.63;2.72;;;15.50;1.00;;;;;;6246059;23;20012;-92
2022/05/01 12:57:01;;;;;;;5.10;3.00;;;15.50;1.00;;;;;;6246472;23;20039;-93
2022/05/01 12:59:55;;;;;;;3.05;2.40;;;14.90;1.00;;;;;;6224698;23;20052;-91
2022/05/01 13:02:42;;;;;;;3.20;2.15;;;15.50;1.00;;;;;;6247121;22;20363;-92
2022/05/01 13:05:24;;;;;;;6.63;2.85;;;15.50;1.00;;;;;;6246373;23;20027;-92
2022/05/01 13:07:55;;;;;;;4.50;2.72;;;15.80;1.00;;;;;;6249287;23;20028;-92
2022/05/01 13:10:28;;;;;;;4.15;2.78;;;15.80;1.00;;;;;;6249416;23;20020;-93
2022/05/01 13:12:58;;;;;;;6.13;3.38;;;15.90;1.00;;;;;;6224215;23;20028;-92
2022/05/01 13:15:39;;;;;;;4.05;2.50;;;15.40;1.00;;;;;;6249321;23;20024;-92
2022/05/01 13:18:07;;;;;;;7.45;2.85;;;15.80;1.00;;;;;;6251772;23;20046;-92
2022/05/01 13:20:42;;;;;;;2.83;2.33;;;15.20;1.00;;;;;;6248764;23;20027;-92
2022/05/01 13:23:47;;;;;;;4.63;2.70;;;15.90;1.00;;;;;;6241240;22;20020;-92
2022/05/01 13:26:39;;;;;;;3.58;2.33;;;15.90;1.00;;;;;;6248603;22;20061;-92
2022/05/01 13:29:13;;;;;;;5.82;3.10;;;16.40;1.00;;;;;;6224936;23;20026;-91
2022/05/01 13:31:47;;;;;;;5.85;2.60;;;16.40;1.00;;;;;;6225390;23;20098;-91
2022/05/01 13:34:15;;;;;;;4.55;2.50;;;16.60;1.00;;;;;;6246348;23;20469;-92
2022/05/01 13:36:54;;;;;;;4.65;3.92;;;16.50;1.00;;;;;;6171020;23;20075;-92
2022/05/01 13:45:24;;;;;;;4.90;3.08;;;15.90;1.00;;;;;;6218536;23;20013;-83
2022/05/01 13:47:51;;;;;;;3.50;2.45;;;16.30;1.00;;;;;;6218843;23;20031;-84
2022/05/01 13:50:18;;;;;;;6.05;2.53;;;17.10;1.00;;;;;;6218867;23;20071;-89
2022/05/01 13:52:45;;;;;;;3.45;2.30;;;17.60;1.00;;;;;;6192625;23;20039;-85
2022/05/01 13:55:12;;;;;;;5.43;2.90;;;17.70;1.00;;;;;;6219014;23;20048;-86
2022/05/01 13:57:43;;;;;;;3.53;2.28;;;17.60;1.00;;;;;;6192831;23;20044;-83
2022/05/01 14:00:12;;;;;;;3.75;2.38;;;17.40;1.00;;;;;;6191427;23;20538;-89
2022/05/01 14:02:41;;;;;;;3.25;1.85;;;17.80;1.00;;;;;;6192733;23;20047;-89
2022/05/01 14:05:08;;;;;;;4.85;3.20;;;18.20;1.00;;;;;;6217869;23;20016;-86
2022/05/01 14:07:35;;;;;;;2.97;2.22;;;18.10;1.00;;;;;;6191391;23;20107;-84
2022/05/01 14:10:29;;;;;;;;;;;;;;;;;;;;;
2022/05/01 14:53:43;;;;;;;2.88;2.35;;;19.50;1.00;;;;;;6247574;22;20050;-90
2022/05/01 14:56:38;;;;;;;3.60;2.03;;;20.10;1.00;;;;;;6249228;23;20016;-92
2022/05/01 15:08:06;;;;;;;;;;;20.50;1.00;;;;;;6248802;23;20028;-91
2022/05/01 15:10:44;;;;;;;3.20;1.88;;;21.00;1.00;;;;;;6225253;23;19927;-91
2022/05/01 15:13:24;;;;;;;2.55;1.90;;;21.20;1.00;;;;;;6246344;23;20012;-91
2022/05/01 15:16:17;;;;;;;5.82;2.50;;;21.30;1.00;;;;;;6223228;23;20020;-91
2022/05/01 15:19:20;;;;;;;3.65;2.28;;;20.80;1.00;;;;;;6222980;23;20016;-91
2022/05/01 15:22:30;;;;;;;3.10;2.17;;;21.10;1.00;;;;;;6246958;23;20052;-90
2022/05/01 15:25:53;;;;;;;3.38;2.33;;;21.40;1.00;;;;;;6206947;23;20020;-91
2022/05/01 15:28:37;;;;;;;4.15;2.90;;;21.60;1.00;;;;;;6218574;23;20027;-90
2022/05/01 15:31:20;;;;;;;3.03;1.98;;;21.80;1.00;;;;;;6247469;23;20028;-91
2022/05/01 15:34:00;;;;;;;2.72;2.30;;;21.80;1.00;;;;;;6222469;22;20320;-91
2022/05/01 15:36:44;;;;;;;5.53;2.70;;;22.10;1.00;;;;;;6249698;22;20134;-91
2022/05/01 15:39:44;;;;;;;4.32;2.47;;;21.80;1.00;;;;;;6248015;22;20043;-90
2022/05/01 15:42:49;;;;;;;3.42;2.20;;;21.60;1.00;;;;;;6226519;23;20020;-91
2022/05/01 15:45:49;;;;;;;3.67;2.15;;;22.20;1.00;;;;;;6244484;22;20469;-91
2022/05/01 15:58:40;;;;;;;4.30;2.58;;;22.30;1.00;;;;;;6188734;23;20345;-90
2022/05/01 16:01:07;;;;;;;2.83;2.17;;;22.60;1.00;;;;;;6216885;23;20017;-90
2022/05/01 16:03:41;;;;;;;2.55;1.83;;;22.10;1.00;;;;;;6190848;23;20040;-90
2022/05/01 16:06:31;;;;;;;2.97;1.92;;;22.40;1.00;;;;;;6191601;23;20020;-91
2022/05/01 16:09:58;;;;;;;3.13;1.95;;;22.10;1.00;;;;;;6190389;23;20015;-90
2022/05/01 16:13:20;;;;;;;5.25;2.50;;;22.10;1.00;;;;;;6188861;23;20444;-91
2022/05/01 16:16:13;;;;;;;2.60;2.25;;;22.20;1.00;;;;;;6190350;23;20087;-91
2022/05/01 16:19:28;;;;;;;3.80;2.22;;;21.60;1.00;;;;;;6169324;23;20028;-85
2022/05/01 16:22:38;;;;;;;4.53;2.25;;;21.80;1.00;;;;;;6190893;23;20071;-91
2022/05/01 16:25:22;;;;;;;5.00;2.28;;;21.80;1.00;;;;;;6175228;22;20031;-92
2022/05/01 16:36:42;;;;;;;2.78;2.20;;;20.30;1.00;;;;;;6247147;23;20035;-90
2022/05/01 16:50:58;;;;;;;;;;;;;;;;;;;;;
2022/05/01 16:56:40;;;;;;;5.03;2.38;;;20.40;1.00;;;;;;6277671;22;20065;-89
2022/05/01 16:59:53;;;;;;;5.57;3.17;;;20.30;1.00;;;;;;6226579;22;20020;-90
2022/05/01 17:08:07;;;;;;;5.13;2.67;;;18.30;1.00;;;;;;6153197;23;20085;-92
2022/05/01 17:12:15;;;;;;;4.90;2.88;;;19.00;1.00;;;;;;6096513;23;20038;-90
2022/05/01 17:40:43;;;;;;;3.85;2.50;;;17.40;1.00;;;;;;6218537;23;20031;-89
2022/05/01 17:58:35;;;;;;;5.28;3.03;;;17.00;1.00;;;;;;6214818;23;20352;-88
2022/05/01 18:01:57;;;;;;;5.28;2.80;;;17.10;1.00;;;;;;6248835;23;20087;-89
2022/05/01 18:11:36;;;;;;;6.32;2.72;;;16.80;1.00;;;;;;6204826;23;20051;-92
2022/05/01 18:15:02;;;;;;;4.10;2.95;;;16.40;1.00;;;;;;6223686;23;20223;-90
2022/05/01 18:18:13;;;;;;;3.33;2.70;;;16.60;1.00;;;;;;6248213;23;20015;-90
2022/05/01 18:20:58;;;;;;;4.88;2.83;;;16.80;1.00;;;;;;6189973;23;20016;-90
2022/05/01 18:24:00;;;;;;;4.38;2.65;;;16.80;1.00;;;;;;6222023;23;20016;-92
2022/05/01 18:27:04;;;;;;;4.22;2.90;;;16.90;1.00;;;;;;6222866;23;20051;-91
2022/05/01 18:33:51;;;;;;;4.55;3.20;;;16.60;1.00;;;;;;6247828;23;20032;-92
2022/05/01 18:36:30;;;;;;;4.90;3.15;;;16.60;1.00;;;;;;6226746;23;20070;-90
2022/05/01 18:39:04;;;;;;;4.20;3.17;;;16.60;1.00;;;;;;6197743;23;20016;-93
2022/05/01 18:46:08;;;;;;;7.05;3.28;;;16.40;1.00;;;;;;6214446;23;20095;-89
2022/05/01 18:49:08;;;;;;;4.55;2.58;;;16.00;1.00;;;;;;6221885;23;20020;-92
2022/05/01 18:51:51;;;;;;;3.65;2.72;;;16.10;1.00;;;;;;6248729;23;20036;-90